METAR AND TAF INFORMATION

OTHH 202100Z AUTO 33006KT CAVOK 18/08 Q1013 NOSIG
TAF OTHH 201701Z 2018/2124 32008KT 9000 NSC BECMG 2108/2110 02008KT

 AIRPORT MAP

 RUNWAY INFORMATION

 AIRPORT FREQUENCIES

 AIRPORT NEAR NAVIGATION AIDS